sensor_id;sensor_type;location;lat;lon;timestamp;noise_LAeq;noise_LA_min;noise_LA_max;noise_LA01;noise_LA95
70740;Laerm;58330;51.888;11.052;2022-07-06T00:00:14;35.37;28.02;50.93;;
70740;Laerm;58330;51.888;11.052;2022-07-06T00:02:40;29.69;27.95;33.57;;
70740;Laerm;58330;51.888;11.052;2022-07-06T00:05:07;34.83;27.64;48.52;;
70740;Laerm;58330;51.888;11.052;2022-07-06T00:07:33;29.14;27.18;35.72;;
70740;Laerm;58330;51.888;11.052;2022-07-06T00:10:01;29.13;27.28;32.90;;
70740;Laerm;58330;51.888;11.052;2022-07-06T00:12:27;29.58;27.32;40.71;;
70740;Laerm;58330;51.888;11.052;2022-07-06T00:14:54;33.51;27.66;46.71;;
70740;Laerm;58330;51.888;11.052;2022-07-06T00:17:20;36.01;28.41;47.98;;
70740;Laerm;58330;51.888;11.052;2022-07-06T00:19:46;31.86;28.02;43.70;;
70740;Laerm;58330;51.888;11.052;2022-07-06T00:22:13;31.54;27.72;46.88;;
70740;Laerm;58330;51.888;11.052;2022-07-06T00:24:39;34.26;27.84;44.86;;
70740;Laerm;58330;51.888;11.052;2022-07-06T00:27:08;30.00;27.23;35.11;;
70740;Laerm;58330;51.888;11.052;2022-07-06T00:29:34;29.46;27.13;32.86;;
70740;Laerm;58330;51.888;11.052;2022-07-06T00:32:01;34.72;28.05;46.55;;
70740;Laerm;58330;51.888;11.052;2022-07-06T00:34:27;32.89;28.73;43.21;;
70740;Laerm;58330;51.888;11.052;2022-07-06T00:36:53;35.46;29.29;47.65;;
70740;Laerm;58330;51.888;11.052;2022-07-06T00:39:19;37.96;28.24;47.87;;
70740;Laerm;58330;51.888;11.052;2022-07-06T00:41:46;35.51;28.08;52.02;;
70740;Laerm;58330;51.888;11.052;2022-07-06T00:44:14;34.62;28.14;49.06;;
70740;Laerm;58330;51.888;11.052;2022-07-06T00:46:40;31.54;28.31;41.99;;
70740;Laerm;58330;51.888;11.052;2022-07-06T00:49:08;30.72;28.01;35.01;;
70740;Laerm;58330;51.888;11.052;2022-07-06T00:51:54;31.84;28.53;40.75;;
70740;Laerm;58330;51.888;11.052;2022-07-06T00:54:21;37.32;27.98;50.83;;
70740;Laerm;58330;51.888;11.052;2022-07-06T00:56:47;35.61;27.96;48.79;;
70740;Laerm;58330;51.888;11.052;2022-07-06T00:59:14;33.03;27.87;45.53;;
70740;Laerm;58330;51.888;11.052;2022-07-06T01:01:41;34.26;27.77;46.42;;
70740;Laerm;58330;51.888;11.052;2022-07-06T01:04:07;32.66;27.82;37.49;;
70740;Laerm;58330;51.888;11.052;2022-07-06T01:06:33;33.06;29.92;39.07;;
70740;Laerm;58330;51.888;11.052;2022-07-06T01:09:00;38.79;29.54;50.77;;
70740;Laerm;58330;51.888;11.052;2022-07-06T01:11:26;33.99;29.02;41.89;;
70740;Laerm;58330;51.888;11.052;2022-07-06T01:13:53;37.24;29.01;50.17;;
70740;Laerm;58330;51.888;11.052;2022-07-06T01:16:22;29.20;27.41;36.85;;
70740;Laerm;58330;51.888;11.052;2022-07-06T01:18:48;37.56;27.50;50.44;;
70740;Laerm;58330;51.888;11.052;2022-07-06T01:21:18;32.05;27.28;42.76;;
70740;Laerm;58330;51.888;11.052;2022-07-06T01:23:45;29.23;27.04;37.00;;
70740;Laerm;58330;51.888;11.052;2022-07-06T01:26:12;36.59;27.31;50.26;;
70740;Laerm;58330;51.888;11.052;2022-07-06T01:28:39;32.72;28.06;47.64;;
70740;Laerm;58330;51.888;11.052;2022-07-06T01:31:05;32.09;27.46;40.78;;
70740;Laerm;58330;51.888;11.052;2022-07-06T01:33:31;33.29;27.66;42.33;;
70740;Laerm;58330;51.888;11.052;2022-07-06T01:35:58;36.85;27.73;50.62;;
70740;Laerm;58330;51.888;11.052;2022-07-06T01:38:26;33.84;27.44;46.41;;
70740;Laerm;58330;51.888;11.052;2022-07-06T01:40:52;36.41;27.27;50.37;;
70740;Laerm;58330;51.888;11.052;2022-07-06T01:43:18;33.49;27.42;45.35;;
70740;Laerm;58330;51.888;11.052;2022-07-06T01:45:44;47.46;28.23;65.08;;
70740;Laerm;58330;51.888;11.052;2022-07-06T01:48:11;31.30;27.54;40.24;;
70740;Laerm;58330;51.888;11.052;2022-07-06T01:50:37;37.15;28.19;51.61;;
70740;Laerm;58330;51.888;11.052;2022-07-06T01:53:03;48.83;28.17;65.50;;
70740;Laerm;58330;51.888;11.052;2022-07-06T01:55:31;45.64;28.00;61.16;;
70740;Laerm;58330;51.888;11.052;2022-07-06T01:57:57;37.22;28.81;51.64;;
70740;Laerm;58330;51.888;11.052;2022-07-06T02:00:24;35.08;28.44;46.53;;
70740;Laerm;58330;51.888;11.052;2022-07-06T02:02:50;37.20;28.61;50.82;;
70740;Laerm;58330;51.888;11.052;2022-07-06T02:05:16;37.95;28.36;50.09;;
70740;Laerm;58330;51.888;11.052;2022-07-06T02:07:42;41.72;28.22;55.06;;
70740;Laerm;58330;51.888;11.052;2022-07-06T02:10:09;42.53;28.87;56.09;;
70740;Laerm;58330;51.888;11.052;2022-07-06T02:12:36;40.14;28.54;56.41;;
70740;Laerm;58330;51.888;11.052;2022-07-06T02:15:03;41.76;28.76;55.27;;
70740;Laerm;58330;51.888;11.052;2022-07-06T02:17:29;39.14;29.69;51.43;;
70740;Laerm;58330;51.888;11.052;2022-07-06T02:19:55;38.38;29.46;51.09;;
70740;Laerm;58330;51.888;11.052;2022-07-06T02:22:22;40.71;29.90;50.27;;
70740;Laerm;58330;51.888;11.052;2022-07-06T02:24:48;42.99;30.66;57.35;;
70740;Laerm;58330;51.888;11.052;2022-07-06T02:27:14;40.74;29.06;58.09;;
70740;Laerm;58330;51.888;11.052;2022-07-06T02:29:42;41.68;30.19;55.51;;
70740;Laerm;58330;51.888;11.052;2022-07-06T02:32:08;44.53;31.06;61.81;;
70740;Laerm;58330;51.888;11.052;2022-07-06T02:34:34;42.22;30.94;60.24;;
70740;Laerm;58330;51.888;11.052;2022-07-06T02:37:01;38.55;31.11;49.09;;
70740;Laerm;58330;51.888;11.052;2022-07-06T02:39:27;42.62;32.15;58.12;;
70740;Laerm;58330;51.888;11.052;2022-07-06T02:41:53;46.22;30.96;60.58;;
70740;Laerm;58330;51.888;11.052;2022-07-06T02:44:20;39.26;31.70;51.34;;
70740;Laerm;58330;51.888;11.052;2022-07-06T02:46:47;40.26;30.92;50.67;;
70740;Laerm;58330;51.888;11.052;2022-07-06T02:49:13;43.91;32.16;57.44;;
70740;Laerm;58330;51.888;11.052;2022-07-06T02:51:40;44.55;31.88;59.29;;
70740;Laerm;58330;51.888;11.052;2022-07-06T02:54:06;42.81;32.16;55.94;;
70740;Laerm;58330;51.888;11.052;2022-07-06T02:56:32;41.86;30.43;52.41;;
70740;Laerm;58330;51.888;11.052;2022-07-06T02:58:58;46.85;31.79;59.19;;
70740;Laerm;58330;51.888;11.052;2022-07-06T03:01:25;42.36;33.11;52.16;;
70740;Laerm;58330;51.888;11.052;2022-07-06T03:03:52;41.63;31.24;51.72;;
70740;Laerm;58330;51.888;11.052;2022-07-06T03:06:19;46.30;33.25;59.38;;
70740;Laerm;58330;51.888;11.052;2022-07-06T03:08:45;44.20;33.91;57.58;;
70740;Laerm;58330;51.888;11.052;2022-07-06T03:11:11;42.93;33.78;55.27;;
70740;Laerm;58330;51.888;11.052;2022-07-06T03:13:37;44.72;32.04;56.36;;
70740;Laerm;58330;51.888;11.052;2022-07-06T03:16:04;47.01;32.87;64.51;;
70740;Laerm;58330;51.888;11.052;2022-07-06T03:18:30;46.06;33.26;63.59;;
70740;Laerm;58330;51.888;11.052;2022-07-06T03:20:58;47.12;32.14;62.53;;
70740;Laerm;58330;51.888;11.052;2022-07-06T03:23:24;50.35;32.67;65.19;;
70740;Laerm;58330;51.888;11.052;2022-07-06T03:25:50;46.53;35.09;68.12;;
70740;Laerm;58330;51.888;11.052;2022-07-06T03:28:16;47.00;35.24;63.92;;
70740;Laerm;58330;51.888;11.052;2022-07-06T03:30:43;51.97;34.38;66.33;;
70740;Laerm;58330;51.888;11.052;2022-07-06T03:33:09;51.57;35.10;65.82;;
70740;Laerm;58330;51.888;11.052;2022-07-06T03:35:35;50.42;36.60;65.16;;
70740;Laerm;58330;51.888;11.052;2022-07-06T03:38:03;47.73;34.82;62.71;;
70740;Laerm;58330;51.888;11.052;2022-07-06T03:40:29;50.01;34.42;63.69;;
70740;Laerm;58330;51.888;11.052;2022-07-06T03:42:55;45.42;35.98;56.50;;
70740;Laerm;58330;51.888;11.052;2022-07-06T03:45:22;46.02;33.90;61.48;;
70740;Laerm;58330;51.888;11.052;2022-07-06T03:47:48;45.76;33.69;63.80;;
70740;Laerm;58330;51.888;11.052;2022-07-06T03:50:14;51.23;36.68;67.22;;
70740;Laerm;58330;51.888;11.052;2022-07-06T03:52:41;47.00;32.82;64.78;;
70740;Laerm;58330;51.888;11.052;2022-07-06T03:55:09;53.37;33.52;70.43;;
70740;Laerm;58330;51.888;11.052;2022-07-06T03:57:36;49.33;34.17;65.52;;
70740;Laerm;58330;51.888;11.052;2022-07-06T04:00:02;43.98;35.45;55.65;;
70740;Laerm;58330;51.888;11.052;2022-07-06T04:02:29;43.76;34.15;53.93;;
70740;Laerm;58330;51.888;11.052;2022-07-06T04:04:55;49.58;33.15;62.61;;
70740;Laerm;58330;51.888;11.052;2022-07-06T04:07:21;49.72;38.07;66.03;;
70740;Laerm;58330;51.888;11.052;2022-07-06T04:09:47;44.30;33.97;63.95;;
70740;Laerm;58330;51.888;11.052;2022-07-06T04:12:15;43.34;34.79;53.29;;
70740;Laerm;58330;51.888;11.052;2022-07-06T04:14:41;44.61;33.25;64.32;;
70740;Laerm;58330;51.888;11.052;2022-07-06T04:17:08;46.31;37.70;55.64;;
70740;Laerm;58330;51.888;11.052;2022-07-06T04:19:48;46.53;35.29;61.23;;
70740;Laerm;58330;51.888;11.052;2022-07-06T04:22:14;47.78;33.56;61.13;;
70740;Laerm;58330;51.888;11.052;2022-07-06T04:24:41;46.56;35.47;61.45;;
70740;Laerm;58330;51.888;11.052;2022-07-06T04:27:07;49.03;37.79;63.39;;
70740;Laerm;58330;51.888;11.052;2022-07-06T04:29:35;44.00;35.10;58.64;;
70740;Laerm;58330;51.888;11.052;2022-07-06T04:32:01;44.28;35.18;53.94;;
70740;Laerm;58330;51.888;11.052;2022-07-06T04:34:28;51.85;35.57;64.76;;
70740;Laerm;58330;51.888;11.052;2022-07-06T04:36:54;49.08;38.94;60.88;;
70740;Laerm;58330;51.888;11.052;2022-07-06T04:39:20;43.99;36.15;57.73;;
70740;Laerm;58330;51.888;11.052;2022-07-06T04:41:47;47.66;34.57;60.77;;
70740;Laerm;58330;51.888;11.052;2022-07-06T04:44:13;47.34;37.27;60.87;;
70740;Laerm;58330;51.888;11.052;2022-07-06T04:46:41;47.21;35.56;63.26;;
70740;Laerm;58330;51.888;11.052;2022-07-06T04:49:07;46.50;37.07;60.97;;
70740;Laerm;58330;51.888;11.052;2022-07-06T04:51:33;50.90;35.72;61.91;;
70740;Laerm;58330;51.888;11.052;2022-07-06T04:53:59;50.89;36.76;71.13;;
70740;Laerm;58330;51.888;11.052;2022-07-06T04:56:26;45.13;35.36;58.17;;
70740;Laerm;58330;51.888;11.052;2022-07-06T04:58:52;53.38;39.12;64.22;;
70740;Laerm;58330;51.888;11.052;2022-07-06T05:01:18;51.45;39.12;62.72;;
70740;Laerm;58330;51.888;11.052;2022-07-06T05:03:46;46.63;38.34;58.99;;
70740;Laerm;58330;51.888;11.052;2022-07-06T05:06:12;49.75;38.85;61.30;;
70740;Laerm;58330;51.888;11.052;2022-07-06T05:08:43;49.81;39.94;60.70;;
70740;Laerm;58330;51.888;11.052;2022-07-06T05:11:09;45.10;38.41;56.28;;
70740;Laerm;58330;51.888;11.052;2022-07-06T05:13:35;45.13;37.63;55.74;;
70740;Laerm;58330;51.888;11.052;2022-07-06T05:16:02;54.25;41.46;69.24;;
70740;Laerm;58330;51.888;11.052;2022-07-06T05:18:28;48.91;35.84;60.45;;
70740;Laerm;58330;51.888;11.052;2022-07-06T05:20:56;48.10;39.40;58.22;;
70740;Laerm;58330;51.888;11.052;2022-07-06T05:23:23;49.11;40.29;60.55;;
70740;Laerm;58330;51.888;11.052;2022-07-06T05:25:49;53.43;40.39;67.25;;
70740;Laerm;58330;51.888;11.052;2022-07-06T05:28:15;50.22;39.98;64.66;;
70740;Laerm;58330;51.888;11.052;2022-07-06T05:30:42;47.93;38.52;60.89;;
70740;Laerm;58330;51.888;11.052;2022-07-06T05:33:09;47.85;39.71;59.06;;
70740;Laerm;58330;51.888;11.052;2022-07-06T05:35:36;50.40;39.58;63.20;;
70740;Laerm;58330;51.888;11.052;2022-07-06T05:38:06;56.47;40.80;64.81;;
70740;Laerm;58330;51.888;11.052;2022-07-06T05:40:32;50.61;39.77;60.56;;
70740;Laerm;58330;51.888;11.052;2022-07-06T05:43:02;47.90;41.25;60.76;;
70740;Laerm;58330;51.888;11.052;2022-07-06T05:45:36;50.36;39.29;61.87;;
70740;Laerm;58330;51.888;11.052;2022-07-06T05:48:02;51.12;38.11;66.28;;
70740;Laerm;58330;51.888;11.052;2022-07-06T05:50:46;49.67;40.94;66.13;;
70740;Laerm;58330;51.888;11.052;2022-07-06T05:53:14;49.60;38.66;61.20;;
70740;Laerm;58330;51.888;11.052;2022-07-06T05:55:40;48.46;40.04;61.58;;
70740;Laerm;58330;51.888;11.052;2022-07-06T05:58:06;49.85;40.03;59.62;;
70740;Laerm;58330;51.888;11.052;2022-07-06T06:00:33;52.43;40.70;62.90;;
70740;Laerm;58330;51.888;11.052;2022-07-06T06:02:59;50.50;39.36;61.17;;
70740;Laerm;58330;51.888;11.052;2022-07-06T06:05:25;48.65;39.39;58.80;;
70740;Laerm;58330;51.888;11.052;2022-07-06T06:07:52;52.61;43.24;62.92;;
70740;Laerm;58330;51.888;11.052;2022-07-06T06:10:20;54.50;38.95;68.85;;
70740;Laerm;58330;51.888;11.052;2022-07-06T06:12:47;46.50;39.66;58.91;;
70740;Laerm;58330;51.888;11.052;2022-07-06T06:15:13;46.00;34.17;56.72;;
70740;Laerm;58330;51.888;11.052;2022-07-06T06:17:40;48.69;37.86;60.86;;
70740;Laerm;58330;51.888;11.052;2022-07-06T06:20:07;46.14;38.59;62.29;;
70740;Laerm;58330;51.888;11.052;2022-07-06T06:22:43;48.56;37.26;62.27;;
70740;Laerm;58330;51.888;11.052;2022-07-06T06:25:10;59.82;38.09;80.99;;
70740;Laerm;58330;51.888;11.052;2022-07-06T06:27:37;50.14;40.21;62.46;;
70740;Laerm;58330;51.888;11.052;2022-07-06T06:30:04;46.63;39.96;56.81;;
70740;Laerm;58330;51.888;11.052;2022-07-06T06:32:31;45.59;39.88;55.68;;
70740;Laerm;58330;51.888;11.052;2022-07-06T06:34:57;47.66;37.52;59.28;;
70740;Laerm;58330;51.888;11.052;2022-07-06T06:37:23;47.65;39.70;59.39;;
70740;Laerm;58330;51.888;11.052;2022-07-06T06:39:50;48.00;37.53;60.39;;
70740;Laerm;58330;51.888;11.052;2022-07-06T06:42:16;48.06;42.20;57.87;;
70740;Laerm;58330;51.888;11.052;2022-07-06T06:44:43;48.37;39.38;68.96;;
70740;Laerm;58330;51.888;11.052;2022-07-06T06:47:10;49.55;37.12;66.13;;
70740;Laerm;58330;51.888;11.052;2022-07-06T06:49:36;46.88;39.32;58.17;;
70740;Laerm;58330;51.888;11.052;2022-07-06T06:52:03;47.92;38.89;61.78;;
70740;Laerm;58330;51.888;11.052;2022-07-06T06:54:29;45.63;37.22;65.01;;
70740;Laerm;58330;51.888;11.052;2022-07-06T06:56:55;48.22;36.67;57.15;;
70740;Laerm;58330;51.888;11.052;2022-07-06T06:59:22;47.33;36.14;64.79;;
70740;Laerm;58330;51.888;11.052;2022-07-06T07:01:50;44.60;38.03;57.17;;
70740;Laerm;58330;51.888;11.052;2022-07-06T07:04:16;46.46;38.73;58.09;;
70740;Laerm;58330;51.888;11.052;2022-07-06T07:06:42;48.61;40.97;58.56;;
70740;Laerm;58330;51.888;11.052;2022-07-06T07:09:09;50.11;41.78;62.78;;
70740;Laerm;58330;51.888;11.052;2022-07-06T07:11:35;48.07;39.77;61.17;;
70740;Laerm;58330;51.888;11.052;2022-07-06T07:14:02;50.07;38.24;63.59;;
70740;Laerm;58330;51.888;11.052;2022-07-06T07:16:29;45.83;38.73;58.63;;
70740;Laerm;58330;51.888;11.052;2022-07-06T07:18:57;47.05;39.12;59.10;;
70740;Laerm;58330;51.888;11.052;2022-07-06T07:21:23;49.61;40.79;61.20;;
70740;Laerm;58330;51.888;11.052;2022-07-06T07:23:50;54.11;39.28;70.19;;
70740;Laerm;58330;51.888;11.052;2022-07-06T07:26:16;49.38;39.40;63.51;;
70740;Laerm;58330;51.888;11.052;2022-07-06T07:28:43;49.66;43.08;62.32;;
70740;Laerm;58330;51.888;11.052;2022-07-06T07:31:12;47.99;40.69;59.05;;
70740;Laerm;58330;51.888;11.052;2022-07-06T07:33:39;49.96;39.75;59.75;;
70740;Laerm;58330;51.888;11.052;2022-07-06T07:36:07;49.18;41.20;61.01;;
70740;Laerm;58330;51.888;11.052;2022-07-06T07:38:33;50.20;41.42;65.57;;
70740;Laerm;58330;51.888;11.052;2022-07-06T07:41:00;50.58;42.44;70.35;;
70740;Laerm;58330;51.888;11.052;2022-07-06T07:43:26;49.35;41.65;64.11;;
70740;Laerm;58330;51.888;11.052;2022-07-06T07:45:53;52.38;39.93;65.79;;
70740;Laerm;58330;51.888;11.052;2022-07-06T07:48:20;48.15;40.76;57.19;;
70740;Laerm;58330;51.888;11.052;2022-07-06T07:50:46;59.13;37.32;78.38;;
70740;Laerm;58330;51.888;11.052;2022-07-06T07:53:14;51.25;36.16;65.65;;
70740;Laerm;58330;51.888;11.052;2022-07-06T07:55:40;46.98;36.74;59.46;;
70740;Laerm;58330;51.888;11.052;2022-07-06T07:58:06;50.38;39.10;61.33;;
70740;Laerm;58330;51.888;11.052;2022-07-06T08:00:33;48.09;37.91;57.96;;
70740;Laerm;58330;51.888;11.052;2022-07-06T08:03:00;49.73;39.15;63.87;;
70740;Laerm;58330;51.888;11.052;2022-07-06T08:05:26;46.10;37.51;57.24;;
70740;Laerm;58330;51.888;11.052;2022-07-06T08:07:52;47.94;40.41;57.77;;
70740;Laerm;58330;51.888;11.052;2022-07-06T08:10:21;50.65;41.79;63.19;;
70740;Laerm;58330;51.888;11.052;2022-07-06T08:12:47;53.68;40.00;68.23;;
70740;Laerm;58330;51.888;11.052;2022-07-06T08:15:14;45.54;40.08;57.89;;
70740;Laerm;58330;51.888;11.052;2022-07-06T08:17:40;52.08;42.58;62.25;;
70740;Laerm;58330;51.888;11.052;2022-07-06T08:20:07;51.23;40.28;65.73;;
70740;Laerm;58330;51.888;11.052;2022-07-06T08:22:34;47.54;37.75;58.15;;
70740;Laerm;58330;51.888;11.052;2022-07-06T08:25:00;46.90;37.63;64.82;;
70740;Laerm;58330;51.888;11.052;2022-07-06T08:27:28;45.31;39.01;55.87;;
70740;Laerm;58330;51.888;11.052;2022-07-06T08:29:55;46.92;38.27;57.96;;
70740;Laerm;58330;51.888;11.052;2022-07-06T08:32:21;47.62;39.32;56.15;;
70740;Laerm;58330;51.888;11.052;2022-07-06T08:34:47;48.40;39.13;60.51;;
70740;Laerm;58330;51.888;11.052;2022-07-06T08:37:14;47.37;36.78;58.77;;
70740;Laerm;58330;51.888;11.052;2022-07-06T08:39:40;48.28;40.57;58.66;;
70740;Laerm;58330;51.888;11.052;2022-07-06T08:42:07;51.19;38.57;66.70;;
70740;Laerm;58330;51.888;11.052;2022-07-06T08:44:35;50.69;41.53;61.96;;
70740;Laerm;58330;51.888;11.052;2022-07-06T08:47:02;48.18;39.87;58.78;;
70740;Laerm;58330;51.888;11.052;2022-07-06T08:49:33;50.76;42.18;59.10;;
70740;Laerm;58330;51.888;11.052;2022-07-06T08:52:02;49.73;40.16;63.42;;
70740;Laerm;58330;51.888;11.052;2022-07-06T08:54:29;50.93;40.50;64.06;;
70740;Laerm;58330;51.888;11.052;2022-07-06T08:56:55;49.68;42.04;58.93;;
70740;Laerm;58330;51.888;11.052;2022-07-06T08:59:22;48.01;40.91;61.84;;
70740;Laerm;58330;51.888;11.052;2022-07-06T09:01:49;47.15;40.16;59.31;;
70740;Laerm;58330;51.888;11.052;2022-07-06T09:04:16;47.56;41.48;56.57;;
70740;Laerm;58330;51.888;11.052;2022-07-06T09:06:43;49.41;42.40;63.04;;
70740;Laerm;58330;51.888;11.052;2022-07-06T09:09:11;52.48;43.06;71.37;;
70740;Laerm;58330;51.888;11.052;2022-07-06T09:11:46;46.37;38.61;56.37;;
70740;Laerm;58330;51.888;11.052;2022-07-06T09:14:12;49.08;40.39;60.10;;
70740;Laerm;58330;51.888;11.052;2022-07-06T09:16:39;49.40;39.55;67.18;;
70740;Laerm;58330;51.888;11.052;2022-07-06T09:19:07;47.07;39.00;58.75;;
70740;Laerm;58330;51.888;11.052;2022-07-06T09:21:36;45.86;38.82;61.18;;
70740;Laerm;58330;51.888;11.052;2022-07-06T09:24:05;46.95;37.64;57.32;;
70740;Laerm;58330;51.888;11.052;2022-07-06T09:26:33;50.00;37.13;59.96;;
70740;Laerm;58330;51.888;11.052;2022-07-06T09:29:00;50.95;40.01;62.20;;
70740;Laerm;58330;51.888;11.052;2022-07-06T09:31:26;45.70;39.22;55.59;;
70740;Laerm;58330;51.888;11.052;2022-07-06T09:33:53;49.82;40.64;60.07;;
70740;Laerm;58330;51.888;11.052;2022-07-06T09:36:27;57.93;38.48;74.72;;
70740;Laerm;58330;51.888;11.052;2022-07-06T09:39:14;52.05;37.91;67.77;;
70740;Laerm;58330;51.888;11.052;2022-07-06T09:41:46;46.80;38.39;60.26;;
70740;Laerm;58330;51.888;11.052;2022-07-06T09:44:17;51.27;40.52;67.19;;
70740;Laerm;58330;51.888;11.052;2022-07-06T09:46:45;48.69;39.12;62.87;;
70740;Laerm;58330;51.888;11.052;2022-07-06T09:49:12;50.03;38.22;60.50;;
70740;Laerm;58330;51.888;11.052;2022-07-06T09:51:40;46.94;39.05;61.55;;
70740;Laerm;58330;51.888;11.052;2022-07-06T09:54:06;49.18;35.41;62.53;;
70740;Laerm;58330;51.888;11.052;2022-07-06T09:56:37;49.98;37.33;61.52;;
70740;Laerm;58330;51.888;11.052;2022-07-06T09:59:05;48.23;41.07;58.86;;
70740;Laerm;58330;51.888;11.052;2022-07-06T10:01:31;47.15;36.85;57.61;;
70740;Laerm;58330;51.888;11.052;2022-07-06T10:03:57;45.70;38.56;57.52;;
70740;Laerm;58330;51.888;11.052;2022-07-06T10:06:23;50.06;39.49;60.58;;
70740;Laerm;58330;51.888;11.052;2022-07-06T10:08:52;49.33;38.30;65.47;;
70740;Laerm;58330;51.888;11.052;2022-07-06T10:11:19;48.49;36.97;64.12;;
70740;Laerm;58330;51.888;11.052;2022-07-06T10:13:45;46.92;40.57;63.26;;
70740;Laerm;58330;51.888;11.052;2022-07-06T10:16:13;46.27;38.89;56.78;;
70740;Laerm;58330;51.888;11.052;2022-07-06T10:18:40;47.16;40.04;58.29;;
70740;Laerm;58330;51.888;11.052;2022-07-06T10:21:07;50.17;43.26;60.62;;
70740;Laerm;58330;51.888;11.052;2022-07-06T10:23:34;47.05;39.92;58.99;;
70740;Laerm;58330;51.888;11.052;2022-07-06T10:26:02;47.12;38.89;57.83;;
70740;Laerm;58330;51.888;11.052;2022-07-06T10:28:30;48.48;34.64;60.44;;
70740;Laerm;58330;51.888;11.052;2022-07-06T10:30:56;48.01;40.42;60.87;;
70740;Laerm;58330;51.888;11.052;2022-07-06T10:33:23;48.81;40.29;61.39;;
70740;Laerm;58330;51.888;11.052;2022-07-06T10:35:50;46.26;38.02;55.97;;
70740;Laerm;58330;51.888;11.052;2022-07-06T10:38:16;48.49;39.53;61.18;;
70740;Laerm;58330;51.888;11.052;2022-07-06T10:40:44;46.98;37.67;58.36;;
70740;Laerm;58330;51.888;11.052;2022-07-06T10:43:32;47.51;39.67;63.27;;
70740;Laerm;58330;51.888;11.052;2022-07-06T10:45:59;48.77;39.64;74.18;;
70740;Laerm;58330;51.888;11.052;2022-07-06T10:48:34;47.91;38.22;66.58;;
70740;Laerm;58330;51.888;11.052;2022-07-06T10:51:00;46.22;38.12;56.75;;
70740;Laerm;58330;51.888;11.052;2022-07-06T10:53:30;47.71;39.32;58.05;;
70740;Laerm;58330;51.888;11.052;2022-07-06T10:55:58;54.83;41.11;69.90;;
70740;Laerm;58330;51.888;11.052;2022-07-06T10:58:35;46.60;40.20;58.36;;
70740;Laerm;58330;51.888;11.052;2022-07-06T11:01:01;46.46;36.47;56.42;;
70740;Laerm;58330;51.888;11.052;2022-07-06T11:03:34;47.44;39.99;61.07;;
70740;Laerm;58330;51.888;11.052;2022-07-06T11:06:02;46.44;40.50;52.82;;
70740;Laerm;58330;51.888;11.052;2022-07-06T11:11:24;48.13;38.37;60.91;;
70740;Laerm;58330;51.888;11.052;2022-07-06T11:13:58;50.55;41.82;62.30;;
70740;Laerm;58330;51.888;11.052;2022-07-06T11:16:26;51.52;42.58;66.59;;
70740;Laerm;58330;51.888;11.052;2022-07-06T11:19:01;46.61;37.92;58.34;;
70740;Laerm;58330;51.888;11.052;2022-07-06T11:21:32;49.30;38.26;60.25;;
70740;Laerm;58330;51.888;11.052;2022-07-06T11:23:59;49.81;40.20;60.46;;
70740;Laerm;58330;51.888;11.052;2022-07-06T11:26:26;48.95;39.04;61.05;;
70740;Laerm;58330;51.888;11.052;2022-07-06T11:28:53;45.83;39.63;57.25;;
70740;Laerm;58330;51.888;11.052;2022-07-06T11:31:20;46.79;40.37;61.07;;
70740;Laerm;58330;51.888;11.052;2022-07-06T11:33:47;47.57;39.50;60.90;;
70740;Laerm;58330;51.888;11.052;2022-07-06T11:36:14;48.99;39.14;59.34;;
70740;Laerm;58330;51.888;11.052;2022-07-06T11:38:43;48.21;40.17;58.74;;
70740;Laerm;58330;51.888;11.052;2022-07-06T11:41:09;48.31;39.59;67.26;;
70740;Laerm;58330;51.888;11.052;2022-07-06T11:43:37;49.63;38.07;61.76;;
70740;Laerm;58330;51.888;11.052;2022-07-06T11:46:07;46.94;39.48;61.81;;
70740;Laerm;58330;51.888;11.052;2022-07-06T11:48:35;47.80;39.92;55.37;;
70740;Laerm;58330;51.888;11.052;2022-07-06T11:51:02;47.49;37.13;63.05;;
70740;Laerm;58330;51.888;11.052;2022-07-06T11:53:28;48.53;39.79;59.56;;
70740;Laerm;58330;51.888;11.052;2022-07-06T11:55:55;49.20;41.11;62.24;;
70740;Laerm;58330;51.888;11.052;2022-07-06T11:58:22;48.32;39.88;62.86;;
70740;Laerm;58330;51.888;11.052;2022-07-06T12:01:04;46.46;41.20;56.07;;
70740;Laerm;58330;51.888;11.052;2022-07-06T12:03:31;50.03;40.82;62.63;;
70740;Laerm;58330;51.888;11.052;2022-07-06T12:06:01;45.69;37.57;55.05;;
70740;Laerm;58330;51.888;11.052;2022-07-06T12:08:27;49.11;40.38;62.75;;
70740;Laerm;58330;51.888;11.052;2022-07-06T12:10:54;47.74;37.15;56.72;;
70740;Laerm;58330;51.888;11.052;2022-07-06T12:13:20;46.64;38.55;56.02;;
70740;Laerm;58330;51.888;11.052;2022-07-06T12:15:46;46.84;41.30;54.56;;
70740;Laerm;58330;51.888;11.052;2022-07-06T12:18:13;47.79;41.04;56.72;;
70740;Laerm;58330;51.888;11.052;2022-07-06T12:20:39;49.55;40.34;59.51;;
70740;Laerm;58330;51.888;11.052;2022-07-06T12:23:07;49.96;41.23;61.76;;
70740;Laerm;58330;51.888;11.052;2022-07-06T12:25:35;49.16;40.79;65.79;;
70740;Laerm;58330;51.888;11.052;2022-07-06T12:28:02;47.69;39.76;60.85;;
70740;Laerm;58330;51.888;11.052;2022-07-06T12:30:29;48.24;39.90;58.49;;
70740;Laerm;58330;51.888;11.052;2022-07-06T12:33:10;49.07;37.36;61.14;;
70740;Laerm;58330;51.888;11.052;2022-07-06T12:35:37;48.08;38.01;61.34;;
70740;Laerm;58330;51.888;11.052;2022-07-06T12:38:05;43.83;34.88;54.45;;
70740;Laerm;58330;51.888;11.052;2022-07-06T12:40:32;46.97;35.88;58.91;;
70740;Laerm;58330;51.888;11.052;2022-07-06T12:42:59;48.79;37.76;57.55;;
70740;Laerm;58330;51.888;11.052;2022-07-06T12:45:26;48.11;38.33;61.74;;
70740;Laerm;58330;51.888;11.052;2022-07-06T12:47:56;49.40;43.48;58.76;;
70740;Laerm;58330;51.888;11.052;2022-07-06T12:50:30;45.21;39.31;53.59;;
70740;Laerm;58330;51.888;11.052;2022-07-06T12:52:57;48.10;37.63;59.29;;
70740;Laerm;58330;51.888;11.052;2022-07-06T12:55:25;47.49;37.46;61.00;;
70740;Laerm;58330;51.888;11.052;2022-07-06T12:57:53;47.48;38.64;63.53;;
70740;Laerm;58330;51.888;11.052;2022-07-06T13:00:19;49.75;42.75;57.20;;
70740;Laerm;58330;51.888;11.052;2022-07-06T13:02:47;52.38;42.51;67.95;;
70740;Laerm;58330;51.888;11.052;2022-07-06T13:05:18;57.96;41.37;78.71;;
70740;Laerm;58330;51.888;11.052;2022-07-06T13:07:52;46.89;40.46;57.31;;
70740;Laerm;58330;51.888;11.052;2022-07-06T13:10:19;48.33;40.75;70.56;;
70740;Laerm;58330;51.888;11.052;2022-07-06T13:12:45;50.46;39.07;70.97;;
70740;Laerm;58330;51.888;11.052;2022-07-06T13:15:13;50.81;40.28;73.11;;
70740;Laerm;58330;51.888;11.052;2022-07-06T13:17:39;49.48;39.47;64.94;;
70740;Laerm;58330;51.888;11.052;2022-07-06T13:20:06;53.56;42.67;66.25;;
70740;Laerm;58330;51.888;11.052;2022-07-06T13:22:33;52.55;41.53;62.67;;
70740;Laerm;58330;51.888;11.052;2022-07-06T13:24:59;50.26;41.95;65.40;;
70740;Laerm;58330;51.888;11.052;2022-07-06T13:27:25;48.44;41.80;59.21;;
70740;Laerm;58330;51.888;11.052;2022-07-06T13:29:52;48.37;41.53;56.61;;
70740;Laerm;58330;51.888;11.052;2022-07-06T13:32:19;47.25;40.83;57.14;;
70740;Laerm;58330;51.888;11.052;2022-07-06T13:34:46;46.44;41.63;52.26;;